N5JNG Weather Reports


Display with metric or nautical units.
time (UTC)temp
F
wind
direction
speed
MPH
gust
MPH
rain 1hr
in
rain 24hr
in
rain mn
in
humidity
%
barometer
mb
20240301165846 59 355 6.0 9.0 0.00 0.00 0.00 68 1019.9
20240301165346 58 17 6.0 10.0 0.00 0.00 0.00 69 1019.9
20240301164845 58 34 7.0 11.0 0.00 0.00 0.00 68 1019.9
20240301164344 58 5 8.0 11.0 0.00 0.00 0.00 68 1019.7
20240301163843 58 30 8.0 11.0 0.00 0.00 0.00 67 1019.7
20240301163345 58 61 8.0 11.0 0.00 0.00 0.00 68 1019.4
20240301162847 58 38 7.0 10.0 0.00 0.00 0.00 68 1019.9
20240301162843 58 46 7.0 11.0 0.00 0.00 0.00 68 1019.5
20240301161843 58 61 8.0 13.0 0.00 0.00 0.00 69 1019.6
20240301161343 57 56 9.0 13.0 0.00 0.00 0.00 69 1019.3
20240301160843 57 42 8.0 12.0 0.00 0.00 0.00 69 1019.3
20240301160350 57 39 8.0 11.0 0.00 0.00 0.00 70 1019.8
20240301160344 57 25 8.0 12.0 0.00 0.00 0.00 69 1019.6
20240301155843 57 56 8.0 12.0 0.00 0.00 0.00 70 1019.6
20240301154842 56 26 7.0 10.0 0.00 0.00 0.00 70 1019.6
20240301153847 56 350 7.0 10.0 0.00 0.00 0.00 71 1019.6
20240301153843 56 27 8.0 11.0 0.00 0.00 0.00 70 1019.8
20240301153459 56 24 7.0 10.0 0.00 0.00 0.00 71 1019.7
20240301153455 56 30 7.0 9.0 0.00 0.00 0.00 71 1019.7
20240301152456 55 11 8.0 12.0 0.00 0.00 0.00 72 1019.7
20240301151841 55 42 7.0 12.0 0.00 0.00 0.00 71 1019.8
20240301150842 55 24 9.0 12.0 0.00 0.00 0.00 72 1019.6
20240301150340 55 28 9.0 14.0 0.00 0.00 0.00 72 1019.5
20240301145839 54 24 11.0 16.0 0.00 0.00 0.00 73 1019.4
20240301145339 54 22 10.0 16.0 0.00 0.00 0.00 73 1019.4
20240301144839 54 28 9.0 14.0 0.00 0.00 0.00 73 1019.4
20240301144339 54 18 8.0 11.0 0.00 0.00 0.00 73 1019.6
20240301143839 54 9 8.0 12.0 0.00 0.00 0.00 73 1019.5
20240301143340 54 12 9.0 12.0 0.00 0.00 0.00 73 1019.5
20240301142344 54 5 7.0 10.0 0.00 0.00 0.00 73 1019.6
20240301142340 54 28 7.0 12.0 0.00 0.00 0.00 73 1019.6
20240301141339 54 18 7.0 9.0 0.00 0.00 0.00 73 1019.9
20240301140838 54 26 7.0 9.0 0.00 0.00 0.00 73 1019.8
20240301140337 54 18 8.0 14.0 0.00 0.00 0.00 73 1019.7
20240301135843 54 28 10.0 14.0 0.00 0.00 0.00 73 1018.9
20240301135839 54 23 10.0 14.0 0.00 0.00 0.00 73 1019.3
20240301134838 54 5 10.0 14.0 0.00 0.00 0.00 73 1019.0
20240301134338 54 0 11.0 14.0 0.00 0.00 0.00 73 1018.9
20240301133843 54 28 9.0 15.0 0.00 0.00 0.00 73 1019.0
20240301133838 54 24 10.0 15.0 0.00 0.00 0.00 73 1018.9
20240301132837 54 22 9.0 13.0 0.00 0.00 0.00 74 1019.0
20240301132337 54 21 9.0 13.0 0.00 0.00 0.00 74 1019.1
20240301131835 54 14 9.0 13.0 0.00 0.00 0.00 74 1018.9
20240301131335 54 20 8.0 12.0 0.00 0.00 0.00 74 1018.8
20240301130835 54 20 8.0 12.0 0.00 0.00 0.00 74 1018.9
20240301130335 53 5 8.0 12.0 0.00 0.00 0.00 74 1018.8
20240301125837 53 5 10.0 15.0 0.00 0.00 0.00 74 1018.8
20240301125336 53 19 10.0 15.0 0.00 0.00 0.00 75 1018.7
20240301124835 53 11 10.0 15.0 0.00 0.00 0.00 75 1018.8
20240301123836 53 0 10.0 14.0 0.00 0.00 0.00 75 1018.5
20240301123340 54 350 10.0 16.0 0.00 0.00 0.00 74 1018.6
20240301123335 54 10 10.0 14.0 0.00 0.00 0.00 75 1018.5
20240301122336 54 5 9.0 16.0 0.00 0.00 0.00 74 1018.5
20240301121840 54 5 10.0 15.0 0.00 0.00 0.00 74 1018.3
20240301121836 54 13 9.0 14.0 0.00 0.00 0.00 74 1018.5
20240301120836 54 12 10.0 15.0 0.00 0.00 0.00 74 1018.3
20240301120336 54 17 9.0 15.0 0.00 0.00 0.00 74 1018.3
20240301115948 54 5 8.0 12.0 0.00 0.00 0.00 74 1018.6
20240301114831 54 342 6.0 11.0 0.00 0.00 0.00 74 1018.7
20240301114333 54 19 7.0 11.0 0.00 0.00 0.00 74 1018.6
20240301113832 54 350 7.0 11.0 0.00 0.00 0.00 74 1018.8
20240301113331 54 344 7.0 11.0 0.00 0.00 0.00 74 1018.7
20240301112831 54 0 8.0 14.0 0.00 0.00 0.00 74 1018.5
20240301112333 54 11 9.0 14.0 0.00 0.00 0.00 73 1018.5
20240301111832 54 9 8.0 14.0 0.00 0.00 0.00 73 1018.3
20240301111331 54 10 9.0 15.0 0.00 0.00 0.00 73 1018.2
20240301110833 54 11 9.0 15.0 0.00 0.00 0.00 73 1018.2
20240301110336 54 343 11.0 16.0 0.00 0.00 0.00 72 1018.0
20240301110331 54 15 9.0 15.0 0.00 0.00 0.00 73 1018.3
20240301105333 54 342 11.0 16.0 0.00 0.00 0.00 72 1018.0
20240301104836 54 5 8.0 13.0 0.00 0.00 0.00 72 1018.0
20240301104831 54 346 9.0 15.0 0.00 0.00 0.00 72 1018.0
20240301103831 54 9 8.0 12.0 0.00 0.00 0.00 72 1017.9
20240301103331 54 350 9.0 14.0 0.00 0.00 0.00 72 1017.9
20240301102833 54 18 9.0 14.0 0.00 0.00 0.00 72 1017.9
20240301102332 54 0 9.0 14.0 0.00 0.00 0.00 72 1017.9
20240301101831 54 343 8.0 14.0 0.00 0.00 0.00 72 1018.0
20240301101331 54 0 8.0 12.0 0.00 0.00 0.00 72 1018.0
20240301100832 54 351 8.0 14.0 0.00 0.00 0.00 71 1017.8
20240301100332 54 341 9.0 14.0 0.00 0.00 0.00 71 1018.1
20240301095832 54 355 9.0 14.0 0.00 0.00 0.00 72 1018.3
20240301094831 54 323 9.0 14.0 0.00 0.00 0.00 72 1018.2
20240301094332 54 347 9.0 13.0 0.00 0.00 0.00 72 1018.1
20240301093837 54 0 9.0 14.0 0.00 0.00 0.00 72 1017.7
20240301093833 54 355 9.0 13.0 0.00 0.00 0.00 72 1017.9
20240301093444 55 5 10.0 16.0 0.00 0.00 0.00 71 1017.7
20240301092332 54 0 10.0 16.0 0.00 0.00 0.00 72 1017.7
20240301091832 54 21 9.0 14.0 0.00 0.00 0.00 71 1017.5
20240301091332 54 355 9.0 14.0 0.00 0.00 0.00 71 1017.7
20240301090832 54 348 9.0 13.0 0.00 0.00 0.00 70 1017.9
20240301090332 54 11 8.0 13.0 0.00 0.00 0.00 70 1017.7
20240301085831 54 28 9.0 13.0 0.00 0.00 0.00 70 1017.9
20240301085331 55 0 10.0 16.0 0.00 0.00 0.00 69 1018.1
20240301084832 55 9 10.0 16.0 0.00 0.00 0.00 69 1018.1
20240301084337 55 355 9.0 15.0 0.00 0.00 0.00 69 1018.1
20240301084331 55 5 9.0 13.0 0.00 0.00 0.00 69 1018.2
20240301083335 55 346 9.0 14.0 0.00 0.00 0.00 70 1018.4
20240301083329 55 345 10.0 15.0 0.00 0.00 0.00 69 1018.3
20240301082331 55 9 9.0 14.0 0.00 0.00 0.00 70 1018.5
20240301081835 55 18 10.0 18.0 0.00 0.00 0.00 69 1018.4
20240301081830 55 5 9.0 14.0 0.00 0.00 0.00 70 1018.3
20240301080835 55 351 9.0 14.0 0.00 0.00 0.00 69 1018.6
20240301080830 55 350 10.0 18.0 0.00 0.00 0.00 69 1018.6
20240301075831 55 342 8.0 13.0 0.00 0.00 0.00 69 1018.6
20240301075330 55 342 9.0 13.0 0.00 0.00 0.00 69 1018.3
20240301074830 55 32 9.0 13.0 0.00 0.00 0.00 69 1018.4
20240301074331 55 355 8.0 12.0 0.00 0.00 0.00 69 1018.6
20240301073828 55 5 8.0 12.0 0.00 0.00 0.00 69 1018.5
20240301073328 55 355 8.0 12.0 0.00 0.00 0.00 69 1018.5
20240301072828 55 40 7.0 11.0 0.00 0.00 0.00 68 1018.6
20240301072328 55 17 7.0 12.0 0.00 0.00 0.00 68 1018.8
20240301071828 55 18 7.0 12.0 0.00 0.00 0.00 68 1019.0
20240301071328 56 350 8.0 14.0 0.00 0.00 0.00 68 1019.2
20240301070832 56 38 9.0 14.0 0.00 0.00 0.00 68 1019.3
20240301070828 56 335 9.0 14.0 0.00 0.00 0.00 68 1019.1
20240301065828 56 350 9.0 13.0 0.00 0.00 0.00 68 1019.3
20240301065329 56 338 8.0 13.0 0.00 0.00 0.00 68 1019.3
20240301064826 56 0 9.0 13.0 0.00 0.00 0.00 69 1019.1
20240301064325 56 355 9.0 13.0 0.00 0.00 0.00 68 1019.3
20240301063827 56 355 9.0 13.0 0.00 0.00 0.00 68 1019.3
20240301063326 56 0 10.0 16.0 0.00 0.00 0.00 69 1019.2
20240301062826 56 5 11.0 16.0 0.00 0.00 0.00 68 1019.0
20240301061826 56 19 10.0 15.0 0.00 0.00 0.00 68 1019.0
20240301061331 56 32 9.0 14.0 0.00 0.00 0.00 69 1019.0
20240301061327 56 5 10.0 14.0 0.00 0.00 0.00 69 1019.0
20240301060327 56 23 9.0 13.0 0.00 0.00 0.00 69 1019.0
20240301055825 56 0 10.0 15.0 0.00 0.00 0.00 69 1019.1
20240301055325 56 5 10.0 15.0 0.00 0.00 0.00 69 1019.1
20240301054825 56 18 10.0 15.0 0.00 0.00 0.00 69 1019.1
20240301054324 56 29 11.0 16.0 0.00 0.00 0.00 69 1019.0
20240301053828 56 41 10.0 18.0 0.00 0.00 0.00 69 1019.1
20240301053824 56 23 10.0 16.0 0.00 0.00 0.00 69 1019.1
20240301052824 56 41 12.0 18.0 0.00 0.00 0.00 69 1019.1
20240301052324 56 22 12.0 18.0 0.00 0.00 0.00 69 1019.1
20240301051824 56 19 11.0 18.0 0.00 0.00 0.00 69 1019.1
20240301051323 56 25 12.0 20.0 0.00 0.00 0.00 68 1019.3
20240301050822 56 36 13.0 20.0 0.00 0.00 0.00 68 1019.3
20240301050323 56 28 12.0 19.0 0.00 0.00 0.00 68 1019.3
20240301045822 56 28 12.0 19.0 0.00 0.00 0.00 69 1019.4
20240301045324 56 44 12.0 19.0 0.00 0.00 0.00 69 1019.4
20240301044823 56 32 12.0 20.0 0.00 0.00 0.00 69 1019.4
20240301044322 56 28 12.0 20.0 0.00 0.00 0.00 69 1019.5
20240301043826 56 11 14.0 21.0 0.00 0.00 0.00 69 1019.7
20240301043822 56 10 13.0 20.0 0.00 0.00 0.00 69 1019.6
20240301042823 56 10 13.0 21.0 0.00 0.00 0.00 69 1019.8
20240301042322 56 34 14.0 20.0 0.00 0.00 0.00 70 1019.9
20240301041820 56 49 13.0 21.0 0.00 0.00 0.00 70 1019.8
20240301041320 56 26 13.0 21.0 0.00 0.00 0.00 71 1019.8
20240301040820 56 28 12.0 18.0 0.00 0.00 0.00 71 1019.9
20240301040326 56 17 13.0 21.0 0.00 0.00 0.00 72 1020.3
20240301040322 56 26 12.0 19.0 0.00 0.00 0.00 71 1020.1
20240301035320 56 19 12.0 21.0 0.00 0.00 0.00 72 1020.3
20240301034824 56 19 11.0 16.0 0.00 0.00 0.00 72 1020.5
20240301034820 56 5 11.0 16.0 0.00 0.00 0.00 72 1020.5
20240301033821 56 355 11.0 16.0 0.00 0.00 0.00 72 1020.5
20240301033322 56 22 11.0 18.0 0.00 0.00 0.00 72 1020.6
20240301033318 56 34 11.0 18.0 0.00 0.00 0.00 72 1020.5
20240301032319 56 24 12.0 18.0 0.00 0.00 0.00 72 1020.6
20240301031824 56 32 13.0 18.0 0.00 0.00 0.00 72 1020.5
20240301031320 56 13 14.0 20.0 0.00 0.00 0.00 72 1020.5
20240301030819 56 27 13.0 20.0 0.00 0.00 0.00 71 1020.6
20240301030318 56 5 11.0 18.0 0.00 0.00 0.00 71 1020.6
20240301025819 56 5 11.0 16.0 0.00 0.00 0.00 70 1020.6
20240301025323 56 19 11.0 15.0 0.00 0.00 0.00 70 1020.5
20240301025318 56 14 11.0 16.0 0.00 0.00 0.00 70 1020.7
20240301024319 56 0 10.0 15.0 0.00 0.00 0.00 69 1020.5
20240301023824 56 340 11.0 18.0 0.00 0.00 0.00 69 1020.4
20240301023819 56 13 10.0 18.0 0.00 0.00 0.00 69 1020.4
20240301022818 56 0 12.0 18.0 0.00 0.00 0.00 69 1020.3
20240301022318 56 342 11.0 18.0 0.00 0.00 0.00 68 1020.3
20240301021819 56 355 11.0 18.0 0.00 0.00 0.00 67 1020.2
20240301021319 56 348 10.0 18.0 0.00 0.00 0.00 66 1020.3
20240301020818 56 355 9.0 14.0 0.00 0.00 0.00 66 1020.3
20240301020319 56 355 11.0 15.0 0.00 0.00 0.00 66 1020.2
20240301015818 56 334 11.0 15.0 0.00 0.00 0.00 66 1020.2
20240301015317 56 342 10.0 15.0 0.00 0.00 0.00 66 1020.1
20240301014816 56 339 10.0 14.0 0.00 0.00 0.00 66 1020.0
20240301014317 56 339 10.0 15.0 0.00 0.00 0.00 66 1019.9
20240301013818 56 355 12.0 18.0 0.00 0.00 0.00 66 1020.0
20240301013814 56 0 10.0 18.0 0.00 0.00 0.00 66 1019.8
20240301012815 56 9 12.0 18.0 0.00 0.00 0.00 66 1019.9
20240301012316 57 22 11.0 16.0 0.00 0.00 0.00 66 1019.9
20240301011815 57 355 11.0 15.0 0.00 0.00 0.00 66 1019.9
20240301011314 57 343 11.0 16.0 0.00 0.00 0.00 66 1019.7
20240301010814 57 331 10.0 16.0 0.00 0.00 0.00 66 1019.8
20240301010313 57 350 11.0 18.0 0.00 0.00 0.00 66 1019.7
20240301005818 57 20 11.0 16.0 0.00 0.00 0.00 67 1019.6
20240301005812 57 340 11.0 18.0 0.00 0.00 0.00 67 1019.8
20240301004813 57 348 11.0 16.0 0.00 0.00 0.00 67 1019.6
20240301004312 57 355 11.0 16.0 0.00 0.00 0.00 67 1019.6
20240301003812 57 0 11.0 16.0 0.00 0.00 0.00 67 1019.6
20240301003311 57 355 11.0 16.0 0.00 0.00 0.00 67 1019.5
20240301002811 57 355 10.0 18.0 0.00 0.00 0.00 68 1019.5
20240301002312 57 355 10.0 18.0 0.00 0.00 0.00 67 1019.6
20240301001811 57 355 9.0 15.0 0.00 0.00 0.00 68 1019.3
20240301001309 57 337 10.0 16.0 0.00 0.00 0.00 68 1019.3
20240301000813 57 355 11.0 19.0 0.00 0.00 0.00 67 1019.2
20240301000809 57 349 11.0 19.0 0.00 0.00 0.00 68 1019.3
20240229235814 58 342 11.0 16.0 0.00 0.00 0.00 68 1019.1
20240229235809 58 11 10.0 15.0 0.00 0.00 0.00 67 1019.2
20240229235308 58 15 10.0 16.0 0.00 0.00 0.00 67 1019.1
20240229234309 58 13 10.0 16.0 0.00 0.00 0.00 68 1019.1
20240229233808 58 15 10.0 16.0 0.00 0.00 0.00 68 1019.1
20240229233308 58 331 10.0 18.0 0.00 0.00 0.00 68 1019.1
20240229232809 58 351 11.0 18.0 0.00 0.00 0.00 68 1019.1
20240229232309 58 5 11.0 16.0 0.00 0.00 0.00 68 1019.0
20240229231810 58 5 12.0 18.0 0.00 0.00 0.00 68 1018.9
20240229231309 58 23 12.0 18.0 0.00 0.00 0.00 68 1018.9
20240229230808 58 26 12.0 18.0 0.00 0.00 0.00 68 1018.9
20240229230310 58 5 13.0 21.0 0.00 0.00 0.00 69 1019.0
20240229225312 59 26 12.0 21.0 0.00 0.00 0.00 68 1018.7
20240229225308 59 32 12.0 20.0 0.00 0.00 0.00 69 1018.8
20240229224309 59 345 12.0 21.0 0.00 0.00 0.00 68 1018.7
20240229223809 59 26 14.0 20.0 0.00 0.00 0.00 68 1018.6
20240229223309 59 31 14.0 20.0 0.00 0.00 0.00 68 1018.7
20240229222808 59 30 13.0 20.0 0.00 0.00 0.00 68 1018.7
20240229222315 58 34 14.0 19.0 0.00 0.00 0.00 68 1019.0
20240229222308 59 19 14.0 21.0 0.00 0.00 0.00 68 1018.7
20240229221809 58 24 14.0 21.0 0.00 0.00 0.00 68 1018.7
20240229220809 58 0 13.0 19.0 0.00 0.00 0.00 69 1019.2
20240229220309 58 14 13.0 19.0 0.00 0.00 0.00 69 1019.2
20240229215808 58 9 12.0 19.0 0.00 0.00 0.00 69 1019.2
20240229215310 58 46 13.0 19.0 0.00 0.00 0.00 68 1019.1
20240229214808 58 32 13.0 20.0 0.00 0.00 0.00 68 1019.0
20240229214309 58 18 13.0 20.0 0.00 0.00 0.00 69 1019.4
20240229213809 58 10 13.0 19.0 0.00 0.00 0.00 68 1019.5
20240229213309 58 23 12.0 20.0 0.00 0.00 0.00 68 1019.3
20240229212809 58 355 13.0 21.0 0.00 0.00 0.00 68 1019.4
20240229212309 58 355 13.0 21.0 0.00 0.00 0.00 67 1019.5
20240229211808 58 336 13.0 19.0 0.00 0.00 0.00 67 1019.5
20240229211309 58 22 13.0 19.0 0.00 0.00 0.00 67 1019.7
20240229210814 58 26 12.0 20.0 0.00 0.00 0.00 67 1019.6
20240229210809 58 333 13.0 20.0 0.00 0.00 0.00 67 1019.8
20240229205813 58 26 12.0 18.0 0.00 0.00 0.00 66 1019.7
20240229205809 58 14 11.0 18.0 0.00 0.00 0.00 66 1019.5
20240229204810 58 355 14.0 19.0 0.00 0.00 0.00 65 1019.8
20240229204308 58 36 14.0 19.0 0.00 0.00 0.00 65 1019.8
20240229203808 58 51 13.0 19.0 0.00 0.00 0.00 65 1020.0
20240229203310 58 13 13.0 19.0 0.00 0.00 0.00 65 1020.2
20240229202807 58 19 13.0 19.0 0.00 0.00 0.00 64 1020.3
20240229202308 58 5 12.0 18.0 0.00 0.00 0.00 65 1020.6
20240229201807 58 22 12.0 18.0 0.00 0.00 0.00 64 1020.6
20240229201307 58 11 11.0 18.0 0.00 0.00 0.00 64 1020.7
20240229200807 58 28 12.0 18.0 0.00 0.00 0.00 64 1020.9
20240229200312 58 11 11.0 16.0 0.00 0.00 0.00 67 1021.2
20240229200308 58 11 11.0 18.0 0.00 0.00 0.00 65 1021.2
20240229195306 58 27 12.0 19.0 0.00 0.00 0.00 67 1021.2
20240229194808 58 355 13.0 19.0 0.00 0.00 0.00 68 1021.2
20240229194306 58 17 11.0 18.0 0.00 0.00 0.00 68 1021.4
20240229193805 58 355 11.0 16.0 0.00 0.00 0.00 67 1021.5
20240229193305 58 17 11.0 15.0 0.00 0.00 0.00 67 1021.5
20240229192804 58 5 10.0 15.0 0.00 0.00 0.00 67 1021.6
20240229192306 58 347 9.0 14.0 0.00 0.00 0.00 67 1021.7
20240229191804 58 335 9.0 14.0 0.00 0.00 0.00 66 1022.0
20240229191305 58 355 9.0 14.0 0.00 0.00 0.00 66 1022.2
20240229190810 58 14 10.0 15.0 0.00 0.00 0.00 66 1022.4
20240229190805 58 5 10.0 15.0 0.00 0.00 0.00 65 1022.3
20240229190305 58 14 10.0 15.0 0.00 0.00 0.00 66 1022.4
20240229185805 58 0 11.0 15.0 0.00 0.00 0.00 64 1022.5
20240229185306 58 325 11.0 15.0 0.00 0.00 0.00 61 1022.5
20240229184802 59 321 12.0 19.0 0.00 0.00 0.00 62 1022.6
20240229184304 59 335 11.0 19.0 0.00 0.00 0.00 62 1022.7
20240229183802 59 325 9.0 15.0 0.00 0.00 0.00 63 1022.7
20240229183308 60 331 9.0 13.0 0.00 0.00 0.00 65 1022.7
20240229183304 59 344 9.0 14.0 0.00 0.00 0.00 64 1022.7
20240229182306 60 317 9.0 13.0 0.00 0.00 0.00 65 1022.8
20240229181804 60 5 9.0 12.0 0.00 0.00 0.00 66 1022.5
20240229181302 60 347 8.0 12.0 0.00 0.00 0.00 66 1022.8
20240229180807 60 22 8.0 12.0 0.00 0.00 0.00 67 1022.6
20240229180803 60 5 8.0 12.0 0.00 0.00 0.00 68 1022.8
20240229175802 60 5 8.0 12.0 0.00 0.00 0.00 67 1022.8
20240229175300 60 5 8.0 13.0 0.00 0.00 0.00 67 1022.9
20240229174801 60 19 9.0 13.0 0.00 0.00 0.00 67 1022.8
20240229174302 60 5 9.0 14.0 0.00 0.00 0.00 66 1022.7
20240229173801 61 31 10.0 15.0 0.00 0.00 0.00 66 1022.6
20240229173306 61 65 12.0 16.0 0.00 0.00 0.00 65 1022.2
20240229173301 61 49 11.0 16.0 0.00 0.00 0.00 66 1022.3
20240229172301 61 46 11.0 16.0 0.00 0.00 0.00 65 1022.2
20240229171803 60 59 10.0 15.0 0.00 0.00 0.00 66 1022.2
20240229171300 60 58 10.0 15.0 0.00 0.00 0.00 66 1022.1
20240229170759 60 49 11.0 15.0 0.00 0.00 0.00 66 1022.1
20240229170259 60 75 11.0 15.0 0.00 0.00 0.00 65 1022.3